createdAt,value
2022-12-01T17:16:57.296Z,88.39
2022-12-01T17:20:01.328Z,85.55
2022-12-01T17:23:05.435Z,83.86
2022-12-01T17:26:11.736Z,83.21
2022-12-01T17:29:15.466Z,83.07
2022-12-01T17:32:20.738Z,83.20
2022-12-01T17:35:24.428Z,84.47
2022-12-01T17:38:28.122Z,83.95
2022-12-01T17:41:35.742Z,81.36
2022-12-01T17:44:39.551Z,83.14
2022-12-01T17:47:44.770Z,82.27
2022-12-01T17:50:48.563Z,82.52
2022-12-01T17:53:53.841Z,82.47
2022-12-01T17:56:57.546Z,81.98
2022-12-01T18:00:01.899Z,82.59
2022-12-01T18:03:13.629Z,81.47
2022-12-01T18:06:18.405Z,82.38
2022-12-01T18:09:22.520Z,81.79
2022-12-01T18:12:26.292Z,82.38
2022-12-01T18:15:34.460Z,80.26
2022-12-01T18:18:40.433Z,80.34
2022-12-01T18:21:44.219Z,80.19
2022-12-01T18:24:48.483Z,79.84
2022-12-01T18:27:58.270Z,79.89
2022-12-01T18:31:04.969Z,79.28
2022-12-01T18:34:12.138Z,79.32
2022-12-01T18:37:16.368Z,79.07
2022-12-01T18:40:20.225Z,79.74
2022-12-01T18:43:23.980Z,81.07
2022-12-01T18:46:27.808Z,80.70
2022-12-01T18:49:34.302Z,80.14
2022-12-01T18:52:38.461Z,81.48
2022-12-01T18:55:42.309Z,82.28
2022-12-01T18:58:46.188Z,81.71
2022-12-01T19:01:50.080Z,80.37
2022-12-01T19:04:55.333Z,81.73
2022-12-01T19:07:59.353Z,81.21
2022-12-01T19:11:05.432Z,82.92
2022-12-01T19:14:13.158Z,83.59
2022-12-01T19:17:16.943Z,83.02
2022-12-01T19:20:22.164Z,82.12
2022-12-01T19:23:25.975Z,83.30
2022-12-01T19:26:29.818Z,82.13
2022-12-01T19:29:33.771Z,81.58
2022-12-01T19:32:37.606Z,81.95
2022-12-01T19:35:42.848Z,82.99
2022-12-01T19:38:47.959Z,81.81
2022-12-01T19:41:51.727Z,82.74
2022-12-01T19:44:55.871Z,84.23
2022-12-01T19:47:59.653Z,83.27
2022-12-01T19:51:05.382Z,82.97
2022-12-01T19:54:14.062Z,82.30
2022-12-01T19:57:17.833Z,81.28
2022-12-01T20:00:22.960Z,80.32
2022-12-01T20:03:26.763Z,80.48
2022-12-01T20:06:33.702Z,80.41
2022-12-01T20:09:37.822Z,79.32
2022-12-01T20:12:41.654Z,80.29
2022-12-01T20:15:45.515Z,80.04
2022-12-01T20:18:50.389Z,80.43
2022-12-01T20:21:55.544Z,80.02
2022-12-01T20:24:59.448Z,80.48
2022-12-01T20:28:03.946Z,79.52
2022-12-01T20:31:11.844Z,79.18
2022-12-01T20:34:18.798Z,80.28
2022-12-01T20:37:24.044Z,79.08
2022-12-01T20:40:27.825Z,80.17
2022-12-01T20:43:32.208Z,80.23
2022-12-01T20:46:36.344Z,81.39
2022-12-01T20:49:40.054Z,80.87
2022-12-01T20:52:45.112Z,82.00
2022-12-01T20:55:48.840Z,81.90
2022-12-01T20:58:53.199Z,83.02
2022-12-01T21:01:57.054Z,81.93
2022-12-01T21:05:01.079Z,83.13
2022-12-01T21:08:09.022Z,82.10
2022-12-01T21:11:19.155Z,81.92
2022-12-01T21:14:26.074Z,81.38
2022-12-01T21:17:35.542Z,81.18
2022-12-01T21:20:44.021Z,81.12
2022-12-01T21:23:54.672Z,82.82
2022-12-01T21:27:01.899Z,81.70
2022-12-01T21:30:16.143Z,81.97
2022-12-01T21:33:28.435Z,80.49
2022-12-01T21:36:32.243Z,81.34
2022-12-01T21:39:38.483Z,81.83
2022-12-01T21:42:42.278Z,80.77
2022-12-01T21:45:46.761Z,80.85
2022-12-01T21:48:51.843Z,81.83
2022-12-01T21:51:55.697Z,81.57
2022-12-01T21:55:10.204Z,82.94
2022-12-01T21:58:25.471Z,82.74
2022-12-01T22:01:31.247Z,82.24
2022-12-01T22:04:35.016Z,82.22
2022-12-01T22:07:38.906Z,80.35
